Time;durP1;ratioP1;P1;durP2;ratioP2;P2;SDS_P1;SDS_P2;PMS_P1;PMS_P2;Temp;Humidity;BMP_temperature;BMP_pressure;BME280_temperature;BME280_humidity;BME280_pressure;Samples;Min_cycle;Max_cycle;Signal;HPM_P1;HPM_P2
2023/08/09 00:00:49;;;;;;;6.78;5.40;;;14.00;99.90;;;;;;5003437;28;20179;-79
2023/08/09 00:03:15;;;;;;;5.68;4.90;;;14.00;99.90;;;;;;5004215;28;20172;-79
2023/08/09 00:05:41;;;;;;;6.60;5.13;;;14.00;99.90;;;;;;5002809;28;20180;-80
2023/08/09 00:08:06;;;;;;;6.40;5.30;;;14.00;99.90;;;;;;5003127;28;20260;-80
2023/08/09 00:10:35;;;;;;;7.00;5.45;;;14.00;99.90;;;;;;5003176;28;20200;-80
2023/08/09 00:13:02;;;;;;;7.68;5.32;;;14.00;99.90;;;;;;5001168;28;20226;-80
2023/08/09 00:15:28;;;;;;;6.28;4.68;;;14.10;99.90;;;;;;5002300;28;20171;-80
2023/08/09 00:17:54;;;;;;;3.30;3.00;;;14.20;99.90;;;;;;5000371;28;20579;-80
2023/08/09 00:20:23;;;;;;;2.90;2.70;;;14.10;99.90;;;;;;4999225;28;20227;-80
2023/08/09 00:22:49;;;;;;;2.35;2.15;;;13.90;99.90;;;;;;4999778;28;20543;-80
2023/08/09 00:25:15;;;;;;;6.00;2.50;;;13.70;99.90;;;;;;5002837;28;20208;-80
2023/08/09 00:27:42;;;;;;;2.70;2.50;;;13.70;99.90;;;;;;4999365;28;20204;-80
2023/08/09 00:30:12;;;;;;;2.55;2.38;;;13.60;99.90;;;;;;5000234;28;20204;-79
2023/08/09 00:32:39;;;;;;;2.47;2.30;;;13.60;99.90;;;;;;5000637;28;20212;-81
2023/08/09 00:35:05;;;;;;;2.95;2.75;;;13.60;99.90;;;;;;5015681;28;20172;-80
2023/08/09 00:37:31;;;;;;;2.47;2.20;;;13.60;99.90;;;;;;4998252;28;20679;-81
2023/08/09 00:39:57;;;;;;;2.20;2.10;;;13.60;99.90;;;;;;4998395;28;20180;-80
2023/08/09 00:42:23;;;;;;;2.75;1.90;;;13.60;99.90;;;;;;4998940;28;20660;-80
2023/08/09 00:44:49;;;;;;;2.40;2.20;;;13.50;99.90;;;;;;4999311;28;20214;-80
2023/08/09 00:47:16;;;;;;;1.98;1.88;;;13.50;99.90;;;;;;4997748;28;20215;-80
2023/08/09 00:49:42;;;;;;;2.22;2.03;;;13.50;99.90;;;;;;5015033;28;20208;-80
2023/08/09 00:52:09;;;;;;;1.95;1.85;;;13.50;99.90;;;;;;4999499;28;20161;-80
2023/08/09 00:54:38;;;;;;;2.25;2.05;;;13.50;99.90;;;;;;4998401;28;20632;-80
2023/08/09 00:57:05;;;;;;;1.90;1.80;;;13.60;99.90;;;;;;4997703;28;20223;-81
2023/08/09 00:59:31;;;;;;;2.10;2.00;;;13.50;99.90;;;;;;4998699;28;20183;-81
2023/08/09 01:01:57;;;;;;;2.10;2.00;;;13.50;99.90;;;;;;4999699;28;20184;-81
2023/08/09 01:04:23;;;;;;;2.20;2.10;;;13.50;99.90;;;;;;4999207;28;20199;-81
2023/08/09 01:06:53;;;;;;;2.17;2.08;;;13.50;99.90;;;;;;4997480;28;20235;-81
2023/08/09 01:09:55;;;;;;;2.58;2.38;;;13.40;99.90;;;;;;4998481;28;20207;-81
2023/08/09 01:12:33;;;;;;;2.65;2.45;;;13.40;99.90;;;;;;4998540;28;20161;-81
2023/08/09 01:15:02;;;;;;;2.97;2.78;;;13.40;99.90;;;;;;4999007;28;20156;-81
2023/08/09 01:17:31;;;;;;;4.10;2.95;;;13.40;99.90;;;;;;4996992;28;20283;-81
2023/08/09 01:19:58;;;;;;;3.13;2.83;;;13.30;99.90;;;;;;4998773;28;20664;-81
2023/08/09 01:22:35;;;;;;;3.92;3.10;;;13.30;99.90;;;;;;4998926;28;20239;-81
2023/08/09 01:25:06;;;;;;;3.50;3.00;;;13.30;99.90;;;;;;4997898;28;20632;-81
2023/08/09 01:27:32;;;;;;;2.90;2.65;;;13.30;99.90;;;;;;4998856;28;20719;-80
2023/08/09 01:29:59;;;;;;;2.90;2.70;;;13.40;99.90;;;;;;4998748;28;20231;-80
2023/08/09 01:32:25;;;;;;;3.08;2.88;;;13.40;99.90;;;;;;4996970;28;20184;-80
2023/08/09 01:34:52;;;;;;;3.00;2.70;;;13.30;99.90;;;;;;4996994;28;20180;-80
2023/08/09 01:37:28;;;;;;;3.22;2.72;;;13.30;99.90;;;;;;5002543;28;20192;-80
2023/08/09 01:39:57;;;;;;;2.88;2.58;;;13.30;99.90;;;;;;4996485;28;20164;-81
2023/08/09 01:42:23;;;;;;;3.15;2.80;;;13.30;99.90;;;;;;4994910;28;20184;-81
2023/08/09 01:44:50;;;;;;;3.03;2.75;;;13.40;99.90;;;;;;4995368;28;20184;-80
2023/08/09 01:47:16;;;;;;;2.90;2.70;;;13.40;99.90;;;;;;5011132;28;20222;-80
2023/08/09 01:49:47;;;;;;;3.53;2.83;;;13.40;99.90;;;;;;4996689;28;20207;-79
2023/08/09 01:52:13;;;;;;;4.18;3.20;;;13.40;99.90;;;;;;4996933;28;20196;-80
2023/08/09 01:54:39;;;;;;;3.65;3.05;;;13.40;99.90;;;;;;4996877;28;20535;-80
2023/08/09 01:57:05;;;;;;;3.58;3.00;;;13.30;99.90;;;;;;4995750;28;20197;-80
2023/08/09 01:59:30;;;;;;;3.28;2.80;;;13.30;99.90;;;;;;4996467;28;20226;-80
2023/08/09 02:01:56;;;;;;;3.15;2.85;;;13.30;99.90;;;;;;4996327;28;20561;-80
2023/08/09 02:04:24;;;;;;;4.22;2.85;;;13.30;99.90;;;;;;4996506;28;20649;-80
2023/08/09 02:06:49;;;;;;;3.90;2.65;;;13.30;99.90;;;;;;4997743;28;20182;-80
2023/08/09 02:09:15;;;;;;;3.72;2.90;;;13.30;99.90;;;;;;4998268;28;20200;-80
2023/08/09 02:11:41;;;;;;;8.38;2.92;;;13.30;99.90;;;;;;4999469;28;20184;-80
2023/08/09 02:14:07;;;;;;;3.47;2.95;;;13.30;99.90;;;;;;5002025;28;20707;-80
2023/08/09 02:16:33;;;;;;;5.93;3.20;;;13.30;99.90;;;;;;5008763;28;20153;-80
2023/08/09 02:19:00;;;;;;;4.38;3.35;;;13.20;99.90;;;;;;5011614;28;20212;-80
2023/08/09 02:21:26;;;;;;;3.85;3.40;;;13.30;99.90;;;;;;5004783;28;20181;-80
2023/08/09 02:23:52;;;;;;;3.67;3.38;;;13.30;99.90;;;;;;5003321;28;20177;-81
2023/08/09 02:26:18;;;;;;;4.78;3.53;;;13.20;99.90;;;;;;5002373;28;20252;-80
2023/08/09 02:28:45;;;;;;;7.38;4.50;;;13.10;99.90;;;;;;5001089;28;20315;-80
2023/08/09 02:31:11;;;;;;;11.52;4.90;;;13.00;99.90;;;;;;5003121;28;20268;-81
2023/08/09 02:33:37;;;;;;;10.10;5.57;;;13.10;99.90;;;;;;5004457;28;20215;-81
2023/08/09 02:36:04;;;;;;;9.15;5.53;;;13.10;99.90;;;;;;5001614;28;20232;-81
2023/08/09 02:38:31;;;;;;;9.43;5.88;;;13.10;99.90;;;;;;5000738;28;20231;-81
2023/08/09 02:40:58;;;;;;;8.48;5.78;;;13.20;99.90;;;;;;5001433;28;20180;-80
2023/08/09 02:43:24;;;;;;;11.50;7.10;;;13.20;99.90;;;;;;5001125;28;20184;-80
2023/08/09 02:45:51;;;;;;;11.40;6.50;;;13.30;99.90;;;;;;5001100;28;20183;-81
2023/08/09 02:48:17;;;;;;;15.35;8.43;;;13.30;99.90;;;;;;5000462;28;20260;-80
2023/08/09 02:50:43;;;;;;;14.00;7.80;;;13.30;99.90;;;;;;5000467;28;20247;-80
2023/08/09 02:53:09;;;;;;;13.73;7.45;;;13.30;99.90;;;;;;5000413;28;20183;-80
2023/08/09 02:55:36;;;;;;;14.95;8.57;;;13.30;99.90;;;;;;5001477;28;20200;-80
2023/08/09 02:58:04;;;;;;;20.05;9.40;;;13.30;99.90;;;;;;5000499;28;20202;-80
2023/08/09 03:00:31;;;;;;;13.50;8.18;;;13.30;99.90;;;;;;5001591;28;20177;-80
2023/08/09 03:02:58;;;;;;;16.70;9.52;;;13.20;99.90;;;;;;5000668;28;20188;-81
2023/08/09 03:05:24;;;;;;;18.15;9.20;;;13.30;99.90;;;;;;5001368;28;20203;-80
2023/08/09 03:07:50;;;;;;;13.35;8.70;;;13.30;99.90;;;;;;5001291;28;20200;-81
2023/08/09 03:10:16;;;;;;;28.58;11.23;;;13.30;99.90;;;;;;4999600;28;20287;-80
2023/08/09 03:12:41;;;;;;;20.80;10.07;;;13.30;99.90;;;;;;5001971;28;20172;-80
2023/08/09 03:15:08;;;;;;;24.42;11.32;;;13.20;99.90;;;;;;5016635;28;20176;-81
2023/08/09 03:17:34;;;;;;;22.42;9.75;;;13.20;99.90;;;;;;5015766;28;20200;-81
2023/08/09 03:20:01;;;;;;;17.10;7.90;;;13.20;99.90;;;;;;4999499;28;20200;-81
2023/08/09 03:22:27;;;;;;;17.08;7.72;;;13.30;99.90;;;;;;4999507;28;20184;-80
2023/08/09 03:24:53;;;;;;;17.10;8.43;;;13.30;99.90;;;;;;4999849;28;20183;-80
2023/08/09 03:27:19;;;;;;;20.55;8.93;;;13.30;99.90;;;;;;5000771;28;20204;-80
2023/08/09 03:29:45;;;;;;;22.98;10.02;;;13.30;99.90;;;;;;5001046;28;20287;-80
2023/08/09 03:32:10;;;;;;;20.15;9.25;;;13.30;99.90;;;;;;5000849;28;20184;-80
2023/08/09 03:34:36;;;;;;;21.10;9.40;;;13.30;99.90;;;;;;5002271;28;20180;-80
2023/08/09 03:37:02;;;;;;;20.15;9.20;;;13.30;99.90;;;;;;5000667;28;20205;-80
2023/08/09 03:39:28;;;;;;;32.75;12.02;;;13.30;99.90;;;;;;5001281;28;20284;-81
2023/08/09 03:41:53;;;;;;;30.40;11.15;;;13.20;99.90;;;;;;5000944;28;20230;-80
2023/08/09 03:44:19;;;;;;;17.10;9.35;;;13.20;99.90;;;;;;5002672;28;20264;-80
2023/08/09 03:46:45;;;;;;;11.07;7.68;;;13.20;99.90;;;;;;5002455;28;20177;-80
2023/08/09 03:49:11;;;;;;;15.13;8.02;;;13.30;99.90;;;;;;5002130;28;20200;-81
2023/08/09 03:51:36;;;;;;;19.75;8.63;;;13.20;99.90;;;;;;5007687;28;20602;-80
2023/08/09 03:54:02;;;;;;;22.33;9.85;;;13.10;99.90;;;;;;5001842;28;20200;-80
2023/08/09 03:56:28;;;;;;;22.30;10.27;;;13.10;99.90;;;;;;5000217;28;20172;-82
2023/08/09 03:58:54;;;;;;;16.30;9.23;;;13.20;99.90;;;;;;4999475;28;20200;-82
2023/08/09 04:01:20;;;;;;;14.13;8.73;;;13.20;99.90;;;;;;5000828;28;20245;-83
2023/08/09 04:03:45;;;;;;;11.68;8.43;;;13.20;99.90;;;;;;4999572;28;20204;-83
2023/08/09 04:06:11;;;;;;;10.65;7.95;;;13.00;99.90;;;;;;5001156;28;20776;-83
2023/08/09 04:08:37;;;;;;;16.08;9.68;;;13.00;99.90;;;;;;4999205;28;20200;-83
2023/08/09 04:11:07;;;;;;;9.85;8.00;;;13.00;99.90;;;;;;4998691;28;20172;-83
2023/08/09 04:13:33;;;;;;;16.10;11.38;;;13.00;99.90;;;;;;4998736;28;20200;-83
2023/08/09 04:15:59;;;;;;;15.43;11.10;;;13.00;99.90;;;;;;4998384;28;20180;-83
2023/08/09 04:18:25;;;;;;;14.05;10.45;;;13.10;99.90;;;;;;4998673;28;20204;-82
2023/08/09 04:20:51;;;;;;;13.50;9.90;;;13.10;99.90;;;;;;4998889;28;20207;-83
2023/08/09 04:23:18;;;;;;;14.25;11.15;;;13.10;99.90;;;;;;4995542;28;20169;-83
2023/08/09 04:25:44;;;;;;;14.68;11.13;;;13.00;99.90;;;;;;4996714;28;20176;-80
2023/08/09 04:28:10;;;;;;;14.93;11.48;;;13.00;99.90;;;;;;4995095;28;20200;-80
2023/08/09 04:30:36;;;;;;;16.13;11.95;;;13.00;99.90;;;;;;5011737;28;20255;-80
2023/08/09 04:33:03;;;;;;;16.13;11.40;;;12.90;99.90;;;;;;5011862;28;20180;-80
2023/08/09 04:35:30;;;;;;;14.25;11.00;;;12.90;99.90;;;;;;4997419;28;20244;-79
2023/08/09 04:37:56;;;;;;;14.82;11.55;;;12.80;99.90;;;;;;4998634;28;20220;-80
2023/08/09 04:40:24;;;;;;;15.88;11.57;;;12.90;99.90;;;;;;5011740;28;20266;-80
2023/08/09 04:42:51;;;;;;;20.02;12.77;;;12.90;99.90;;;;;;4996491;28;20171;-80
2023/08/09 04:45:17;;;;;;;19.38;14.13;;;13.00;99.90;;;;;;4999214;28;20207;-80
2023/08/09 04:47:42;;;;;;;18.88;12.68;;;12.90;99.90;;;;;;5003452;28;20214;-80
2023/08/09 04:50:09;;;;;;;23.67;14.77;;;12.90;99.90;;;;;;5004518;28;20236;-80
2023/08/09 04:52:35;;;;;;;20.75;13.90;;;12.90;99.90;;;;;;5003735;28;20177;-80
2023/08/09 04:55:02;;;;;;;24.23;16.23;;;13.00;99.90;;;;;;5019112;28;20172;-80
2023/08/09 04:57:31;;;;;;;21.30;15.50;;;13.00;99.90;;;;;;5003621;28;20219;-80
2023/08/09 04:59:57;;;;;;;25.98;16.33;;;13.10;99.90;;;;;;5002301;28;20184;-80
2023/08/09 05:02:23;;;;;;;28.35;17.75;;;13.10;99.90;;;;;;5002235;28;20555;-80
2023/08/09 05:04:49;;;;;;;27.90;18.00;;;13.00;99.90;;;;;;5002164;28;20203;-80
2023/08/09 05:07:15;;;;;;;33.45;18.88;;;12.90;99.90;;;;;;5018052;28;20196;-80
2023/08/09 05:09:41;;;;;;;31.23;19.25;;;12.90;99.90;;;;;;5002526;28;20204;-80
2023/08/09 05:12:06;;;;;;;28.35;18.25;;;13.00;99.90;;;;;;5000375;28;20179;-80
2023/08/09 05:14:32;;;;;;;30.25;19.05;;;13.10;99.90;;;;;;5000912;28;20176;-80
2023/08/09 05:16:58;;;;;;;27.45;17.83;;;13.20;99.90;;;;;;5016918;28;20655;-80
2023/08/09 05:19:24;;;;;;;32.95;18.90;;;13.20;99.90;;;;;;5001857;28;20201;-80
2023/08/09 05:21:50;;;;;;;27.92;18.85;;;13.20;99.90;;;;;;4999767;28;20187;-80
2023/08/09 05:24:16;;;;;;;31.58;19.77;;;13.20;99.90;;;;;;4997552;28;20223;-80
2023/08/09 05:26:41;;;;;;;35.85;19.75;;;13.20;99.90;;;;;;4997543;28;20236;-80
2023/08/09 05:29:07;;;;;;;32.50;19.33;;;13.30;99.90;;;;;;5013079;28;20215;-80
2023/08/09 05:31:33;;;;;;;27.88;17.92;;;13.30;99.90;;;;;;4996220;28;20554;-80
2023/08/09 05:33:59;;;;;;;26.77;18.20;;;13.30;99.90;;;;;;4997346;28;20267;-80
2023/08/09 05:36:25;;;;;;;31.35;19.85;;;13.30;99.90;;;;;;4998963;28;20172;-80
2023/08/09 05:38:51;;;;;;;30.65;18.63;;;13.30;99.90;;;;;;4996831;28;20203;-80
2023/08/09 05:41:17;;;;;;;28.95;17.70;;;13.40;99.90;;;;;;4998064;28;20176;-80
2023/08/09 05:43:43;;;;;;;24.85;16.08;;;13.40;99.90;;;;;;4997034;28;20161;-79
2023/08/09 05:46:09;;;;;;;26.77;17.52;;;13.40;99.90;;;;;;4998704;28;20513;-80
2023/08/09 05:48:35;;;;;;;22.67;16.73;;;13.30;99.90;;;;;;5013577;28;20211;-80
2023/08/09 05:51:01;;;;;;;21.58;15.23;;;13.30;99.90;;;;;;4997710;28;20172;-80
2023/08/09 05:53:26;;;;;;;21.35;15.70;;;13.30;99.90;;;;;;4997568;28;20226;-80
2023/08/09 05:55:52;;;;;;;23.10;17.30;;;13.30;99.90;;;;;;5014000;28;20226;-79
2023/08/09 05:58:20;;;;;;;24.02;17.08;;;13.30;99.90;;;;;;4997414;28;20577;-80
2023/08/09 06:00:46;;;;;;;23.88;16.95;;;13.30;99.90;;;;;;4998490;28;20157;-79
2023/08/09 06:03:12;;;;;;;26.63;16.80;;;13.40;99.90;;;;;;4997160;28;20546;-79
2023/08/09 06:05:38;;;;;;;23.13;16.70;;;13.40;99.90;;;;;;4995789;28;20239;-80
2023/08/09 06:08:04;;;;;;;24.48;16.90;;;13.40;99.90;;;;;;4998441;28;20262;-80
2023/08/09 06:10:30;;;;;;;23.95;16.17;;;13.50;99.90;;;;;;4997871;28;20200;-79
2023/08/09 06:12:56;;;;;;;23.73;16.45;;;13.50;99.90;;;;;;4996571;28;20199;-80
2023/08/09 06:15:22;;;;;;;26.30;17.17;;;13.50;99.90;;;;;;5015625;28;20172;-81
2023/08/09 06:17:48;;;;;;;20.80;15.07;;;13.60;99.90;;;;;;4997035;28;20197;-79
2023/08/09 06:20:14;;;;;;;26.05;17.10;;;13.70;99.90;;;;;;4995315;28;20538;-80
2023/08/09 06:22:41;;;;;;;20.17;14.85;;;13.60;99.90;;;;;;4994091;28;20641;-80
2023/08/09 06:25:08;;;;;;;27.35;18.85;;;13.70;99.90;;;;;;4994843;28;20207;-79
2023/08/09 06:27:34;;;;;;;25.85;18.00;;;13.80;99.90;;;;;;4994619;28;20580;-78
2023/08/09 06:30:01;;;;;;;21.83;17.23;;;13.90;99.90;;;;;;4994953;28;20224;-79
2023/08/09 06:32:27;;;;;;;23.13;15.65;;;13.70;99.90;;;;;;4997220;28;20184;-79
2023/08/09 06:34:52;;;;;;;19.27;14.80;;;13.70;99.90;;;;;;4998200;28;20164;-79
2023/08/09 06:37:18;;;;;;;21.83;16.13;;;13.60;99.90;;;;;;4996739;28;20201;-78
2023/08/09 06:39:44;;;;;;;20.58;14.80;;;13.60;99.90;;;;;;4994931;28;20679;-79
2023/08/09 06:42:12;;;;;;;24.38;16.10;;;13.70;99.90;;;;;;4996817;28;20176;-79
2023/08/09 06:44:41;;;;;;;21.52;16.00;;;13.60;99.90;;;;;;5012641;28;20664;-78
2023/08/09 06:47:07;;;;;;;18.48;14.45;;;13.60;99.90;;;;;;4996941;28;20200;-79
2023/08/09 06:49:32;;;;;;;20.10;14.80;;;13.70;99.90;;;;;;4998741;28;20223;-78
2023/08/09 06:52:00;;;;;;;23.35;16.38;;;13.80;99.90;;;;;;4997582;28;20182;-79
2023/08/09 06:54:28;;;;;;;27.05;16.77;;;14.00;99.90;;;;;;5014299;28;20185;-79
2023/08/09 06:56:54;;;;;;;26.20;17.15;;;14.10;99.90;;;;;;4999375;28;20208;-79
2023/08/09 06:59:20;;;;;;;20.00;15.23;;;14.30;99.90;;;;;;5002362;28;20172;-79
2023/08/09 07:01:48;;;;;;;18.13;14.02;;;14.30;99.90;;;;;;5018886;28;20184;-79
2023/08/09 07:04:15;;;;;;;19.13;13.25;;;14.30;99.90;;;;;;5003777;28;20640;-79
2023/08/09 07:06:41;;;;;;;18.88;14.48;;;14.20;99.90;;;;;;5003968;28;20207;-79
2023/08/09 07:09:07;;;;;;;17.98;13.93;;;14.30;99.90;;;;;;5003765;28;20205;-78
2023/08/09 07:11:33;;;;;;;24.83;15.43;;;14.20;99.90;;;;;;5003685;28;20173;-79
2023/08/09 07:13:59;;;;;;;23.02;14.80;;;14.20;99.90;;;;;;5018509;28;20192;-79
2023/08/09 07:16:25;;;;;;;19.27;14.40;;;14.10;99.90;;;;;;5002299;28;20207;-78
2023/08/09 07:18:52;;;;;;;22.00;14.68;;;14.00;99.90;;;;;;5003950;28;20215;-79
2023/08/09 07:21:18;;;;;;;20.63;13.68;;;13.90;99.90;;;;;;5001971;28;20204;-79
2023/08/09 07:23:43;;;;;;;17.98;13.68;;;13.80;99.90;;;;;;5001207;28;20747;-79
2023/08/09 07:26:09;;;;;;;15.40;12.00;;;13.80;99.90;;;;;;5018109;28;20192;-78
2023/08/09 07:28:35;;;;;;;15.93;11.50;;;13.90;99.90;;;;;;5003575;28;20286;-79
2023/08/09 07:31:01;;;;;;;14.85;10.52;;;14.10;99.90;;;;;;5004180;28;20252;-78
2023/08/09 07:33:27;;;;;;;17.48;12.07;;;14.20;99.90;;;;;;5002941;28;20668;-79
2023/08/09 07:35:53;;;;;;;14.38;10.93;;;14.30;99.90;;;;;;5002414;28;20188;-79
2023/08/09 07:38:19;;;;;;;16.63;10.98;;;14.60;99.90;;;;;;5005029;28;20197;-79
2023/08/09 07:40:45;;;;;;;17.60;12.18;;;14.80;99.90;;;;;;5005369;28;20173;-79
2023/08/09 07:43:11;;;;;;;14.48;10.80;;;15.00;99.90;;;;;;5006216;28;20181;-79
2023/08/09 07:45:37;;;;;;;14.65;9.77;;;15.00;99.90;;;;;;5021402;28;20254;-79
2023/08/09 07:48:03;;;;;;;13.40;10.38;;;14.90;99.90;;;;;;5005919;28;20219;-79
2023/08/09 07:50:29;;;;;;;15.52;10.65;;;14.90;99.90;;;;;;5021468;28;20291;-79
2023/08/09 07:52:54;;;;;;;19.58;11.60;;;14.90;99.90;;;;;;5002953;28;20199;-79
2023/08/09 07:55:22;;;;;;;15.40;11.23;;;15.00;99.90;;;;;;5001028;28;20248;-79
2023/08/09 07:57:47;;;;;;;14.48;10.70;;;15.10;99.90;;;;;;5000502;28;20283;-78
2023/08/09 08:00:17;;;;;;;11.77;8.75;;;15.10;99.90;;;;;;5000339;28;20602;-78
2023/08/09 08:02:44;;;;;;;11.95;8.75;;;15.20;99.90;;;;;;4998168;28;20614;-78
2023/08/09 08:05:11;;;;;;;15.68;10.02;;;15.20;99.90;;;;;;4998880;28;20188;-78
2023/08/09 08:07:41;;;;;;;15.20;11.48;;;15.30;99.90;;;;;;5016245;28;20212;-79
2023/08/09 08:10:13;;;;;;;13.85;10.63;;;15.40;99.90;;;;;;5013748;28;20212;-78
2023/08/09 08:12:40;;;;;;;16.77;11.20;;;15.50;99.90;;;;;;5000925;28;20156;-79
2023/08/09 08:15:06;;;;;;;10.30;8.65;;;15.60;99.90;;;;;;5000097;28;20188;-79
2023/08/09 08:17:33;;;;;;;16.27;9.27;;;15.70;99.90;;;;;;5001222;28;20232;-78
2023/08/09 08:19:59;;;;;;;11.30;8.52;;;15.80;99.90;;;;;;5007126;28;20224;-79
2023/08/09 08:22:25;;;;;;;13.20;9.43;;;15.80;99.90;;;;;;5020720;28;20185;-79
2023/08/09 08:24:51;;;;;;;10.98;8.55;;;15.70;99.90;;;;;;5004152;28;20193;-79
2023/08/09 08:27:20;;;;;;;14.77;9.20;;;15.70;99.90;;;;;;5005095;28;20199;-79
2023/08/09 08:29:46;;;;;;;10.90;7.30;;;15.80;99.90;;;;;;5003347;28;20205;-79
2023/08/09 08:32:11;;;;;;;9.43;7.35;;;16.00;99.90;;;;;;5003636;28;20184;-79
2023/08/09 08:34:37;;;;;;;11.20;8.35;;;16.30;99.90;;;;;;5003641;28;20621;-79
2023/08/09 08:37:04;;;;;;;11.60;8.25;;;16.80;99.90;;;;;;5004557;28;20172;-79
2023/08/09 08:39:35;;;;;;;8.52;6.78;;;17.20;99.90;;;;;;5003341;28;20220;-79
2023/08/09 08:42:01;;;;;;;10.45;7.35;;;17.50;99.90;;;;;;5013261;28;20187;-79
2023/08/09 08:44:27;;;;;;;9.18;7.32;;;17.30;99.90;;;;;;5013117;28;20192;-79
2023/08/09 08:46:53;;;;;;;10.07;7.55;;;17.00;99.90;;;;;;5027352;28;20183;-79
2023/08/09 08:49:23;;;;;;;11.57;7.18;;;17.10;99.90;;;;;;5007990;28;20188;-79
2023/08/09 08:51:52;;;;;;;7.20;6.18;;;17.50;99.90;;;;;;5007326;28;20172;-79
2023/08/09 08:54:18;;;;;;;9.43;7.13;;;18.00;54.70;;;;;;5006176;28;20184;-79
2023/08/09 08:56:45;;;;;;;8.32;6.10;;;18.30;99.90;;;;;;5006621;28;20187;-78
2023/08/09 08:59:12;;;;;;;12.50;7.78;;;18.50;1.00;;;;;;5007786;28;20184;-79
2023/08/09 09:01:37;;;;;;;13.77;7.55;;;18.60;99.90;;;;;;5005535;28;20588;-79
2023/08/09 09:04:04;;;;;;;9.68;6.85;;;18.80;99.90;;;;;;5004238;28;20180;-79
2023/08/09 09:06:30;;;;;;;8.23;6.88;;;18.70;1.00;;;;;;5003333;28;20233;-79
2023/08/09 09:08:56;;;;;;;9.00;6.40;;;18.40;99.90;;;;;;5004001;28;20212;-79
2023/08/09 09:11:23;;;;;;;9.70;6.03;;;18.10;1.00;;;;;;5005637;28;20173;-79
2023/08/09 09:13:50;;;;;;;7.47;6.03;;;17.90;1.00;;;;;;5004762;28;20295;-79
2023/08/09 09:16:17;;;;;;;8.30;5.45;;;18.00;44.60;;;;;;5003404;28;20605;-80
2023/08/09 09:18:48;;;;;;;6.45;5.32;;;18.50;99.90;;;;;;5003671;28;20212;-79
2023/08/09 09:21:19;;;;;;;8.43;5.30;;;18.80;1.00;;;;;;5004368;28;20228;-80
2023/08/09 09:23:45;;;;;;;5.75;5.15;;;19.00;1.00;;;;;;5004122;28;20224;-80
2023/08/09 09:26:16;;;;;;;5.95;4.35;;;19.40;99.90;;;;;;5019228;28;20283;-80
2023/08/09 09:28:47;;;;;;;5.03;4.30;;;19.40;99.90;;;;;;5003835;28;20196;-80
2023/08/09 09:31:17;;;;;;;5.28;4.78;;;19.50;99.90;;;;;;5002334;28;20207;-80
2023/08/09 09:33:54;;;;;;;5.78;4.65;;;19.60;1.00;;;;;;5001067;28;20554;-79
2023/08/09 09:36:20;;;;;;;7.82;4.50;;;19.70;1.00;;;;;;5002873;28;20169;-79
2023/08/09 09:38:52;;;;;;;8.02;5.57;;;19.80;1.00;;;;;;5001380;28;20235;-80
2023/08/09 09:41:18;;;;;;;7.63;4.93;;;19.60;1.00;;;;;;4996449;28;20512;-80
2023/08/09 09:43:46;;;;;;;6.05;4.95;;;19.40;1.00;;;;;;4995400;28;20247;-79
2023/08/09 09:46:23;;;;;;;6.72;4.53;;;19.00;1.00;;;;;;4995459;28;20191;-80
2023/08/09 09:48:59;;;;;;;7.18;4.60;;;19.10;99.90;;;;;;4995652;28;20227;-80
2023/08/09 09:51:26;;;;;;;6.03;4.43;;;19.30;1.00;;;;;;4998401;28;20167;-79
2023/08/09 09:53:52;;;;;;;4.28;3.75;;;19.10;1.00;;;;;;4997348;28;20180;-79
2023/08/09 09:56:19;;;;;;;4.30;3.90;;;18.90;99.90;;;;;;4997522;28;20187;-79
2023/08/09 09:58:45;;;;;;;5.03;3.85;;;18.60;1.00;;;;;;5013255;28;20255;-80
2023/08/09 10:01:18;;;;;;;5.88;4.53;;;18.60;1.00;;;;;;4998656;28;20176;-80
2023/08/09 10:03:45;;;;;;;6.85;4.55;;;18.60;41.90;;;;;;5015247;28;20195;-79
2023/08/09 10:06:22;;;;;;;6.80;4.60;;;18.70;99.90;;;;;;5006267;28;20232;-80
2023/08/09 10:08:52;;;;;;;6.40;4.75;;;18.60;99.90;;;;;;5007189;28;20569;-79
2023/08/09 10:11:19;;;;;;;4.82;4.32;;;18.80;99.90;;;;;;5001397;28;20176;-79
2023/08/09 10:13:47;;;;;;;5.53;3.40;;;18.90;99.90;;;;;;4996130;28;20183;-79
2023/08/09 10:16:15;;;;;;;4.60;3.65;;;19.10;99.90;;;;;;4995963;28;20251;-80
2023/08/09 10:18:51;;;;;;;5.35;4.10;;;19.30;99.90;;;;;;4998445;28;20676;-79
2023/08/09 10:21:18;;;;;;;4.43;3.65;;;19.80;99.90;;;;;;4998095;28;20184;-79
2023/08/09 10:24:06;;;;;;;4.32;3.92;;;20.10;99.90;;;;;;4996576;28;20184;-78
2023/08/09 10:26:32;;;;;;;5.35;3.45;;;20.20;99.90;;;;;;4997537;28;20165;-79
2023/08/09 10:29:08;;;;;;;4.53;3.75;;;20.10;99.90;;;;;;4998691;28;20208;-79
2023/08/09 10:31:51;;;;;;;5.38;4.03;;;19.90;1.00;;;;;;4997819;28;20188;-79
2023/08/09 10:34:18;;;;;;;6.20;3.63;;;19.90;99.90;;;;;;5002844;28;20169;-79
2023/08/09 10:36:54;;;;;;;4.00;3.45;;;19.80;99.90;;;;;;5002704;28;20180;-79
2023/08/09 10:39:21;;;;;;;4.15;3.63;;;20.20;99.90;;;;;;5001572;28;20187;-79
2023/08/09 10:41:54;;;;;;;4.45;3.38;;;20.40;99.90;;;;;;5003377;28;20184;-79
2023/08/09 10:44:31;;;;;;;3.80;2.90;;;20.00;99.90;;;;;;5018988;28;20181;-79
2023/08/09 10:47:19;;;;;;;7.22;3.75;;;19.80;99.90;;;;;;5003565;28;20164;-79
2023/08/09 10:49:47;;;;;;;6.38;3.97;;;19.80;1.00;;;;;;5003552;28;20235;-79
2023/08/09 10:52:16;;;;;;;4.82;3.50;;;19.70;99.90;;;;;;5020018;28;20177;-79
2023/08/09 10:54:42;;;;;;;6.38;4.15;;;19.60;99.90;;;;;;5004272;28;20227;-79
2023/08/09 10:57:10;;;;;;;5.80;4.65;;;19.60;1.00;;;;;;5004284;28;20655;-79
2023/08/09 10:59:41;;;;;;;8.82;4.70;;;19.60;1.00;;;;;;4997649;28;20181;-76
2023/08/09 11:02:07;;;;;;;6.07;3.97;;;19.50;1.00;;;;;;4995985;28;20184;-76
2023/08/09 11:04:34;;;;;;;6.32;3.83;;;19.50;99.90;;;;;;5012640;28;20207;-76
2023/08/09 11:07:00;;;;;;;8.52;3.95;;;19.40;99.90;;;;;;5012502;28;20195;-77
2023/08/09 11:09:32;;;;;;;4.65;3.45;;;19.50;99.90;;;;;;4995856;28;20211;-76
2023/08/09 11:11:58;;;;;;;4.50;3.53;;;19.60;1.00;;;;;;5012191;28;20173;-77
2023/08/09 11:14:24;;;;;;;5.20;3.42;;;19.80;99.90;;;;;;4998267;28;20244;-78
2023/08/09 11:16:51;;;;;;;7.28;4.18;;;19.80;1.00;;;;;;5001088;28;20191;-78
2023/08/09 11:19:19;;;;;;;7.53;4.80;;;19.90;99.90;;;;;;5012607;28;20199;-77
2023/08/09 11:21:50;;;;;;;6.28;4.35;;;20.00;1.00;;;;;;4997215;28;20260;-77
2023/08/09 11:24:17;;;;;;;8.13;4.75;;;19.90;99.90;;;;;;4997413;28;20165;-77
2023/08/09 11:26:48;;;;;;;8.52;5.45;;;19.90;1.00;;;;;;4995941;28;20184;-78
2023/08/09 11:29:15;;;;;;;10.38;6.72;;;19.80;1.00;;;;;;4997250;28;20200;-78
2023/08/09 11:31:43;;;;;;;10.77;6.45;;;19.70;99.90;;;;;;4996004;28;20512;-77
2023/08/09 11:34:15;;;;;;;13.07;6.35;;;19.70;99.90;;;;;;4995434;28;20737;-77
2023/08/09 11:36:43;;;;;;;12.40;6.78;;;19.70;1.00;;;;;;4995537;28;20645;-78
2023/08/09 11:39:10;;;;;;;7.25;5.43;;;19.70;19.80;;;;;;4995597;28;20197;-77
2023/08/09 11:41:42;;;;;;;9.05;6.13;;;19.60;1.00;;;;;;4995294;28;20184;-77
2023/08/09 11:44:09;;;;;;;9.27;5.85;;;19.50;1.00;;;;;;4996944;28;20176;-76
2023/08/09 11:46:35;;;;;;;8.48;5.85;;;19.60;99.90;;;;;;4996957;28;20652;-77
2023/08/09 11:49:04;;;;;;;9.90;6.03;;;19.50;99.90;;;;;;4996551;28;20204;-77
2023/08/09 11:51:33;;;;;;;8.45;5.90;;;19.50;99.90;;;;;;4995343;28;20184;-76
2023/08/09 11:53:59;;;;;;;10.95;5.95;;;19.50;1.00;;;;;;4996615;28;20173;-75
2023/08/09 11:56:31;;;;;;;9.30;6.20;;;19.50;99.90;;;;;;4996112;28;20172;-75
2023/08/09 11:58:59;;;;;;;7.65;5.22;;;19.50;99.90;;;;;;4994885;28;20199;-75
2023/08/09 12:01:31;;;;;;;8.93;5.32;;;19.50;99.90;;;;;;4994809;28;20176;-75
2023/08/09 12:04:05;;;;;;;9.57;6.15;;;19.60;99.90;;;;;;4996153;28;20161;-76
2023/08/09 12:06:42;;;;;;;9.60;5.70;;;19.50;99.90;;;;;;4996119;28;20188;-76
2023/08/09 12:09:35;;;;;;;8.63;5.97;;;19.40;1.00;;;;;;4994886;28;20302;-76
2023/08/09 12:12:04;;;;;;;7.35;5.38;;;19.40;99.90;;;;;;4996284;28;20264;-76
2023/08/09 12:14:31;;;;;;;7.28;5.20;;;19.40;1.00;;;;;;5011218;28;20653;-76
2023/08/09 12:16:57;;;;;;;7.25;5.78;;;19.50;81.60;;;;;;4995029;28;20637;-76
2023/08/09 12:19:22;;;;;;;7.68;5.45;;;19.60;1.00;;;;;;4996353;28;20200;-76
2023/08/09 12:21:48;;;;;;;6.78;5.93;;;19.70;99.90;;;;;;4996610;28;20687;-76
2023/08/09 12:24:15;;;;;;;9.43;5.88;;;19.50;99.90;;;;;;4996091;28;20247;-76
2023/08/09 12:26:41;;;;;;;9.15;5.50;;;19.40;1.00;;;;;;4994432;28;20624;-76
2023/08/09 12:29:09;;;;;;;8.02;5.18;;;19.40;54.30;;;;;;4996671;28;20622;-76
2023/08/09 12:31:36;;;;;;;7.68;5.30;;;19.40;99.90;;;;;;4994524;28;20191;-76
2023/08/09 12:34:02;;;;;;;7.47;5.45;;;19.50;99.90;;;;;;4995807;28;20176;-76
2023/08/09 12:36:29;;;;;;;6.25;5.25;;;19.60;1.00;;;;;;4994442;28;20180;-76
2023/08/09 12:38:56;;;;;;;9.23;5.22;;;19.70;1.00;;;;;;4994475;28;20205;-76
2023/08/09 12:41:24;;;;;;;6.45;5.15;;;19.80;1.00;;;;;;4994365;28;20526;-76